sensor_id;sensor_type;location;lat;lon;timestamp;P1;durP1;ratioP1;P2;durP2;ratioP2
57858;SDS011;49153;45.568;11.894;2022-11-20T00:00:41;11.82;;;7.65;;
57858;SDS011;49153;45.568;11.894;2022-11-20T00:03:06;15.48;;;8.52;;
57858;SDS011;49153;45.568;11.894;2022-11-20T00:05:32;16.70;;;8.75;;
57858;SDS011;49153;45.568;11.894;2022-11-20T00:07:58;13.95;;;8.38;;
57858;SDS011;49153;45.568;11.894;2022-11-20T00:10:23;14.13;;;8.20;;
57858;SDS011;49153;45.568;11.894;2022-11-20T00:12:49;14.63;;;9.05;;
57858;SDS011;49153;45.568;11.894;2022-11-20T00:15:14;12.77;;;7.82;;
57858;SDS011;49153;45.568;11.894;2022-11-20T00:17:40;13.20;;;7.80;;
57858;SDS011;49153;45.568;11.894;2022-11-20T00:20:05;12.20;;;7.45;;
57858;SDS011;49153;45.568;11.894;2022-11-20T00:22:31;13.13;;;7.78;;
57858;SDS011;49153;45.568;11.894;2022-11-20T00:24:57;13.23;;;7.90;;
57858;SDS011;49153;45.568;11.894;2022-11-20T00:27:22;11.27;;;7.55;;
57858;SDS011;49153;45.568;11.894;2022-11-20T00:29:48;11.45;;;7.78;;
57858;SDS011;49153;45.568;11.894;2022-11-20T00:32:14;11.43;;;7.10;;
57858;SDS011;49153;45.568;11.894;2022-11-20T00:34:42;9.50;;;6.70;;
57858;SDS011;49153;45.568;11.894;2022-11-20T00:37:07;11.77;;;7.18;;
57858;SDS011;49153;45.568;11.894;2022-11-20T00:39:33;11.68;;;7.22;;
57858;SDS011;49153;45.568;11.894;2022-11-20T00:41:58;11.23;;;6.88;;
57858;SDS011;49153;45.568;11.894;2022-11-20T00:44:23;11.27;;;7.22;;
57858;SDS011;49153;45.568;11.894;2022-11-20T00:46:49;11.52;;;7.28;;
57858;SDS011;49153;45.568;11.894;2022-11-20T00:49:14;15.02;;;7.88;;
57858;SDS011;49153;45.568;11.894;2022-11-20T00:51:40;11.20;;;7.32;;
57858;SDS011;49153;45.568;11.894;2022-11-20T00:54:05;11.02;;;7.38;;
57858;SDS011;49153;45.568;11.894;2022-11-20T00:56:31;14.00;;;7.82;;
57858;SDS011;49153;45.568;11.894;2022-11-20T00:58:58;11.68;;;7.80;;
57858;SDS011;49153;45.568;11.894;2022-11-20T01:01:25;12.93;;;8.93;;
57858;SDS011;49153;45.568;11.894;2022-11-20T01:03:51;13.23;;;8.32;;
57858;SDS011;49153;45.568;11.894;2022-11-20T01:06:19;12.93;;;7.85;;
57858;SDS011;49153;45.568;11.894;2022-11-20T01:08:46;13.30;;;8.25;;
57858;SDS011;49153;45.568;11.894;2022-11-20T01:11:15;13.48;;;8.07;;
57858;SDS011;49153;45.568;11.894;2022-11-20T01:13:42;10.43;;;7.38;;
57858;SDS011;49153;45.568;11.894;2022-11-20T01:16:18;13.18;;;8.07;;
57858;SDS011;49153;45.568;11.894;2022-11-20T01:18:47;14.05;;;8.43;;
57858;SDS011;49153;45.568;11.894;2022-11-20T01:21:22;12.35;;;7.82;;
57858;SDS011;49153;45.568;11.894;2022-11-20T01:23:50;13.38;;;8.10;;
57858;SDS011;49153;45.568;11.894;2022-11-20T01:26:17;12.73;;;7.97;;
57858;SDS011;49153;45.568;11.894;2022-11-20T01:28:44;11.88;;;7.57;;
57858;SDS011;49153;45.568;11.894;2022-11-20T01:31:17;13.80;;;8.23;;
57858;SDS011;49153;45.568;11.894;2022-11-20T01:33:49;12.63;;;8.52;;
57858;SDS011;49153;45.568;11.894;2022-11-20T01:36:17;12.68;;;7.85;;
57858;SDS011;49153;45.568;11.894;2022-11-20T01:38:44;13.48;;;8.10;;
57858;SDS011;49153;45.568;11.894;2022-11-20T01:41:11;13.93;;;8.45;;
57858;SDS011;49153;45.568;11.894;2022-11-20T01:43:57;12.95;;;7.90;;
57858;SDS011;49153;45.568;11.894;2022-11-20T01:46:23;13.15;;;8.07;;
57858;SDS011;49153;45.568;11.894;2022-11-20T01:48:54;13.77;;;8.48;;
57858;SDS011;49153;45.568;11.894;2022-11-20T01:54:23;11.13;;;7.78;;
57858;SDS011;49153;45.568;11.894;2022-11-20T01:56:53;11.10;;;7.70;;
57858;SDS011;49153;45.568;11.894;2022-11-20T01:59:23;13.37;;;8.43;;
57858;SDS011;49153;45.568;11.894;2022-11-20T02:01:51;12.25;;;8.70;;
57858;SDS011;49153;45.568;11.894;2022-11-20T02:04:17;14.73;;;8.75;;
57858;SDS011;49153;45.568;11.894;2022-11-20T02:07:05;13.75;;;8.68;;
57858;SDS011;49153;45.568;11.894;2022-11-20T02:09:30;13.05;;;8.40;;
57858;SDS011;49153;45.568;11.894;2022-11-20T02:11:56;14.35;;;9.02;;
57858;SDS011;49153;45.568;11.894;2022-11-20T02:14:23;11.93;;;7.97;;
57858;SDS011;49153;45.568;11.894;2022-11-20T02:16:50;13.68;;;8.25;;
57858;SDS011;49153;45.568;11.894;2022-11-20T02:19:23;11.95;;;7.93;;
57858;SDS011;49153;45.568;11.894;2022-11-20T02:24:35;12.35;;;7.93;;
57858;SDS011;49153;45.568;11.894;2022-11-20T02:27:02;13.27;;;7.80;;
57858;SDS011;49153;45.568;11.894;2022-11-20T02:32:18;13.43;;;8.02;;
57858;SDS011;49153;45.568;11.894;2022-11-20T02:34:44;11.85;;;7.35;;
57858;SDS011;49153;45.568;11.894;2022-11-20T02:37:09;14.45;;;8.55;;
57858;SDS011;49153;45.568;11.894;2022-11-20T02:39:35;12.40;;;7.68;;
57858;SDS011;49153;45.568;11.894;2022-11-20T02:42:01;11.88;;;7.75;;
57858;SDS011;49153;45.568;11.894;2022-11-20T02:44:27;13.27;;;7.53;;
57858;SDS011;49153;45.568;11.894;2022-11-20T02:46:52;12.30;;;7.72;;
57858;SDS011;49153;45.568;11.894;2022-11-20T02:49:18;11.23;;;7.70;;
57858;SDS011;49153;45.568;11.894;2022-11-20T02:51:43;12.70;;;7.70;;
57858;SDS011;49153;45.568;11.894;2022-11-20T02:54:09;11.38;;;7.63;;
57858;SDS011;49153;45.568;11.894;2022-11-20T02:56:37;14.45;;;8.25;;
57858;SDS011;49153;45.568;11.894;2022-11-20T02:59:03;12.10;;;7.60;;
57858;SDS011;49153;45.568;11.894;2022-11-20T03:01:29;13.05;;;7.82;;
57858;SDS011;49153;45.568;11.894;2022-11-20T03:03:55;10.90;;;7.10;;
57858;SDS011;49153;45.568;11.894;2022-11-20T03:06:21;11.82;;;7.53;;
57858;SDS011;49153;45.568;11.894;2022-11-20T03:08:46;12.35;;;7.63;;
57858;SDS011;49153;45.568;11.894;2022-11-20T03:11:12;13.82;;;8.43;;
57858;SDS011;49153;45.568;11.894;2022-11-20T03:13:38;14.82;;;8.73;;
57858;SDS011;49153;45.568;11.894;2022-11-20T03:16:07;12.98;;;8.40;;
57858;SDS011;49153;45.568;11.894;2022-11-20T03:18:38;11.82;;;7.22;;
57858;SDS011;49153;45.568;11.894;2022-11-20T03:21:05;12.90;;;7.95;;
57858;SDS011;49153;45.568;11.894;2022-11-20T03:23:31;11.48;;;7.57;;
57858;SDS011;49153;45.568;11.894;2022-11-20T03:26:10;13.80;;;8.23;;
57858;SDS011;49153;45.568;11.894;2022-11-20T03:28:42;13.68;;;7.75;;
57858;SDS011;49153;45.568;11.894;2022-11-20T03:31:12;12.25;;;7.75;;
57858;SDS011;49153;45.568;11.894;2022-11-20T03:33:39;11.80;;;7.82;;
57858;SDS011;49153;45.568;11.894;2022-11-20T03:36:07;13.95;;;8.20;;
57858;SDS011;49153;45.568;11.894;2022-11-20T03:38:35;13.05;;;8.38;;
57858;SDS011;49153;45.568;11.894;2022-11-20T03:41:05;13.02;;;8.18;;
57858;SDS011;49153;45.568;11.894;2022-11-20T03:43:35;12.88;;;7.97;;
57858;SDS011;49153;45.568;11.894;2022-11-20T03:46:01;14.35;;;8.18;;
57858;SDS011;49153;45.568;11.894;2022-11-20T03:48:27;12.02;;;7.68;;
57858;SDS011;49153;45.568;11.894;2022-11-20T03:51:06;19.50;;;8.32;;
57858;SDS011;49153;45.568;11.894;2022-11-20T03:53:44;13.45;;;7.70;;
57858;SDS011;49153;45.568;11.894;2022-11-20T03:56:11;13.45;;;7.95;;
57858;SDS011;49153;45.568;11.894;2022-11-20T03:58:38;12.95;;;8.05;;
57858;SDS011;49153;45.568;11.894;2022-11-20T04:01:09;10.80;;;7.20;;
57858;SDS011;49153;45.568;11.894;2022-11-20T04:03:46;12.15;;;8.07;;
57858;SDS011;49153;45.568;11.894;2022-11-20T04:06:19;11.82;;;7.60;;
57858;SDS011;49153;45.568;11.894;2022-11-20T04:08:47;11.60;;;7.35;;
57858;SDS011;49153;45.568;11.894;2022-11-20T04:13:38;13.20;;;7.47;;
57858;SDS011;49153;45.568;11.894;2022-11-20T04:16:08;12.57;;;7.28;;
57858;SDS011;49153;45.568;11.894;2022-11-20T04:18:35;12.57;;;7.50;;
57858;SDS011;49153;45.568;11.894;2022-11-20T04:21:01;11.13;;;7.97;;
57858;SDS011;49153;45.568;11.894;2022-11-20T04:23:27;11.18;;;6.90;;
57858;SDS011;49153;45.568;11.894;2022-11-20T04:25:53;10.18;;;6.68;;
57858;SDS011;49153;45.568;11.894;2022-11-20T04:28:19;10.40;;;7.05;;
57858;SDS011;49153;45.568;11.894;2022-11-20T04:30:45;12.30;;;7.13;;
57858;SDS011;49153;45.568;11.894;2022-11-20T04:33:10;10.70;;;7.18;;
57858;SDS011;49153;45.568;11.894;2022-11-20T04:35:36;9.90;;;6.22;;
57858;SDS011;49153;45.568;11.894;2022-11-20T04:38:02;9.60;;;5.97;;
57858;SDS011;49153;45.568;11.894;2022-11-20T04:40:28;10.52;;;6.40;;
57858;SDS011;49153;45.568;11.894;2022-11-20T04:42:54;9.50;;;6.03;;
57858;SDS011;49153;45.568;11.894;2022-11-20T04:45:20;9.55;;;5.97;;
57858;SDS011;49153;45.568;11.894;2022-11-20T04:47:47;9.38;;;5.93;;
57858;SDS011;49153;45.568;11.894;2022-11-20T04:50:12;10.50;;;6.30;;
57858;SDS011;49153;45.568;11.894;2022-11-20T04:52:38;11.52;;;6.80;;
57858;SDS011;49153;45.568;11.894;2022-11-20T04:55:03;9.57;;;6.57;;
57858;SDS011;49153;45.568;11.894;2022-11-20T04:57:29;9.85;;;6.10;;
57858;SDS011;49153;45.568;11.894;2022-11-20T04:59:55;8.57;;;5.80;;
57858;SDS011;49153;45.568;11.894;2022-11-20T05:02:20;10.15;;;5.80;;
57858;SDS011;49153;45.568;11.894;2022-11-20T05:04:46;9.75;;;5.47;;
57858;SDS011;49153;45.568;11.894;2022-11-20T05:07:12;9.95;;;5.55;;
57858;SDS011;49153;45.568;11.894;2022-11-20T05:09:38;9.68;;;5.95;;
57858;SDS011;49153;45.568;11.894;2022-11-20T05:12:03;9.63;;;5.68;;
57858;SDS011;49153;45.568;11.894;2022-11-20T05:14:29;9.80;;;5.88;;
57858;SDS011;49153;45.568;11.894;2022-11-20T05:16:54;10.43;;;5.63;;
57858;SDS011;49153;45.568;11.894;2022-11-20T05:19:20;10.10;;;6.07;;
57858;SDS011;49153;45.568;11.894;2022-11-20T05:21:45;9.65;;;5.82;;
57858;SDS011;49153;45.568;11.894;2022-11-20T05:24:11;9.30;;;5.22;;
57858;SDS011;49153;45.568;11.894;2022-11-20T05:26:36;7.45;;;5.20;;
57858;SDS011;49153;45.568;11.894;2022-11-20T05:29:02;8.00;;;5.40;;
57858;SDS011;49153;45.568;11.894;2022-11-20T05:31:28;8.13;;;5.25;;
57858;SDS011;49153;45.568;11.894;2022-11-20T05:33:53;10.82;;;5.53;;
57858;SDS011;49153;45.568;11.894;2022-11-20T05:36:20;9.30;;;5.03;;
57858;SDS011;49153;45.568;11.894;2022-11-20T05:38:45;8.02;;;5.10;;
57858;SDS011;49153;45.568;11.894;2022-11-20T05:43:38;9.32;;;5.00;;
57858;SDS011;49153;45.568;11.894;2022-11-20T05:46:05;9.52;;;5.07;;
57858;SDS011;49153;45.568;11.894;2022-11-20T05:48:33;7.93;;;5.03;;
57858;SDS011;49153;45.568;11.894;2022-11-20T05:51:00;7.65;;;5.03;;
57858;SDS011;49153;45.568;11.894;2022-11-20T05:53:26;8.55;;;4.85;;
57858;SDS011;49153;45.568;11.894;2022-11-20T05:56:02;8.43;;;5.10;;
57858;SDS011;49153;45.568;11.894;2022-11-20T05:58:30;7.70;;;5.00;;
57858;SDS011;49153;45.568;11.894;2022-11-20T06:01:06;9.27;;;4.82;;
57858;SDS011;49153;45.568;11.894;2022-11-20T06:03:38;8.82;;;5.22;;
57858;SDS011;49153;45.568;11.894;2022-11-20T06:06:04;8.38;;;4.97;;
57858;SDS011;49153;45.568;11.894;2022-11-20T06:08:30;8.77;;;5.15;;
57858;SDS011;49153;45.568;11.894;2022-11-20T06:10:56;8.32;;;5.03;;
57858;SDS011;49153;45.568;11.894;2022-11-20T06:13:22;7.60;;;4.68;;
57858;SDS011;49153;45.568;11.894;2022-11-20T06:15:51;8.13;;;4.88;;
57858;SDS011;49153;45.568;11.894;2022-11-20T06:18:17;7.95;;;4.95;;
57858;SDS011;49153;45.568;11.894;2022-11-20T06:20:43;8.27;;;4.85;;
57858;SDS011;49153;45.568;11.894;2022-11-20T06:23:09;8.85;;;5.30;;
57858;SDS011;49153;45.568;11.894;2022-11-20T06:25:41;7.95;;;5.15;;
57858;SDS011;49153;45.568;11.894;2022-11-20T06:28:08;8.55;;;5.38;;
57858;SDS011;49153;45.568;11.894;2022-11-20T06:30:34;7.22;;;4.78;;
57858;SDS011;49153;45.568;11.894;2022-11-20T06:33:00;11.50;;;4.93;;
57858;SDS011;49153;45.568;11.894;2022-11-20T06:35:26;8.88;;;5.40;;
57858;SDS011;49153;45.568;11.894;2022-11-20T06:37:51;9.63;;;5.40;;
57858;SDS011;49153;45.568;11.894;2022-11-20T06:42:54;9.40;;;5.15;;
57858;SDS011;49153;45.568;11.894;2022-11-20T06:45:20;12.63;;;5.20;;
57858;SDS011;49153;45.568;11.894;2022-11-20T06:47:46;9.23;;;5.22;;
57858;SDS011;49153;45.568;11.894;2022-11-20T06:50:11;10.45;;;5.05;;
57858;SDS011;49153;45.568;11.894;2022-11-20T06:52:37;6.78;;;4.55;;
57858;SDS011;49153;45.568;11.894;2022-11-20T06:55:03;8.30;;;5.05;;
57858;SDS011;49153;45.568;11.894;2022-11-20T06:57:28;7.15;;;4.75;;
57858;SDS011;49153;45.568;11.894;2022-11-20T06:59:54;7.70;;;4.97;;
57858;SDS011;49153;45.568;11.894;2022-11-20T07:02:19;10.23;;;4.97;;
57858;SDS011;49153;45.568;11.894;2022-11-20T07:04:45;8.88;;;4.78;;
57858;SDS011;49153;45.568;11.894;2022-11-20T07:07:10;10.45;;;4.43;;
57858;SDS011;49153;45.568;11.894;2022-11-20T07:09:36;7.45;;;4.55;;
57858;SDS011;49153;45.568;11.894;2022-11-20T07:12:01;7.00;;;4.38;;
57858;SDS011;49153;45.568;11.894;2022-11-20T07:14:27;7.00;;;4.65;;
57858;SDS011;49153;45.568;11.894;2022-11-20T07:16:52;7.70;;;4.93;;
57858;SDS011;49153;45.568;11.894;2022-11-20T07:19:18;7.70;;;4.70;;
57858;SDS011;49153;45.568;11.894;2022-11-20T07:21:43;6.43;;;4.32;;
57858;SDS011;49153;45.568;11.894;2022-11-20T07:24:09;8.77;;;4.95;;
57858;SDS011;49153;45.568;11.894;2022-11-20T07:26:34;7.93;;;4.90;;
57858;SDS011;49153;45.568;11.894;2022-11-20T07:29:00;7.15;;;4.43;;
57858;SDS011;49153;45.568;11.894;2022-11-20T07:31:25;9.27;;;4.88;;
57858;SDS011;49153;45.568;11.894;2022-11-20T07:33:51;6.63;;;4.85;;
57858;SDS011;49153;45.568;11.894;2022-11-20T07:36:16;9.45;;;5.03;;
57858;SDS011;49153;45.568;11.894;2022-11-20T07:38:42;9.57;;;5.18;;
57858;SDS011;49153;45.568;11.894;2022-11-20T07:41:07;10.68;;;5.35;;
57858;SDS011;49153;45.568;11.894;2022-11-20T07:43:33;8.18;;;5.10;;
57858;SDS011;49153;45.568;11.894;2022-11-20T07:45:58;8.43;;;4.78;;
57858;SDS011;49153;45.568;11.894;2022-11-20T07:48:24;9.43;;;5.00;;
57858;SDS011;49153;45.568;11.894;2022-11-20T07:50:55;8.02;;;5.35;;
57858;SDS011;49153;45.568;11.894;2022-11-20T07:53:22;7.72;;;4.88;;
57858;SDS011;49153;45.568;11.894;2022-11-20T07:58:17;7.95;;;5.18;;
57858;SDS011;49153;45.568;11.894;2022-11-20T08:00:42;7.90;;;5.20;;
57858;SDS011;49153;45.568;11.894;2022-11-20T08:03:08;8.05;;;4.68;;
57858;SDS011;49153;45.568;11.894;2022-11-20T08:05:33;6.60;;;4.90;;
57858;SDS011;49153;45.568;11.894;2022-11-20T08:07:59;7.50;;;4.63;;
57858;SDS011;49153;45.568;11.894;2022-11-20T08:10:25;7.18;;;4.70;;
57858;SDS011;49153;45.568;11.894;2022-11-20T08:12:51;6.28;;;3.95;;
57858;SDS011;49153;45.568;11.894;2022-11-20T08:15:36;6.55;;;4.22;;
57858;SDS011;49153;45.568;11.894;2022-11-20T08:18:04;9.00;;;4.60;;
57858;SDS011;49153;45.568;11.894;2022-11-20T08:20:34;6.55;;;4.68;;
57858;SDS011;49153;45.568;11.894;2022-11-20T08:23:00;6.05;;;4.18;;
57858;SDS011;49153;45.568;11.894;2022-11-20T08:25:28;9.93;;;4.65;;
57858;SDS011;49153;45.568;11.894;2022-11-20T08:27:56;6.20;;;4.20;;
57858;SDS011;49153;45.568;11.894;2022-11-20T08:30:25;6.82;;;3.92;;
57858;SDS011;49153;45.568;11.894;2022-11-20T08:32:51;7.13;;;4.35;;
57858;SDS011;49153;45.568;11.894;2022-11-20T08:35:17;6.20;;;3.78;;
57858;SDS011;49153;45.568;11.894;2022-11-20T08:37:45;9.20;;;4.07;;
57858;SDS011;49153;45.568;11.894;2022-11-20T08:40:11;6.18;;;3.70;;
57858;SDS011;49153;45.568;11.894;2022-11-20T08:42:45;5.30;;;3.47;;
57858;SDS011;49153;45.568;11.894;2022-11-20T08:45:11;5.10;;;3.63;;
57858;SDS011;49153;45.568;11.894;2022-11-20T08:47:37;6.10;;;3.38;;
57858;SDS011;49153;45.568;11.894;2022-11-20T08:50:02;5.45;;;3.75;;
57858;SDS011;49153;45.568;11.894;2022-11-20T08:52:28;5.22;;;3.40;;
57858;SDS011;49153;45.568;11.894;2022-11-20T08:54:53;5.78;;;4.05;;
57858;SDS011;49153;45.568;11.894;2022-11-20T08:57:19;7.28;;;3.70;;
57858;SDS011;49153;45.568;11.894;2022-11-20T08:59:44;5.93;;;3.95;;
57858;SDS011;49153;45.568;11.894;2022-11-20T09:02:10;5.55;;;3.45;;
57858;SDS011;49153;45.568;11.894;2022-11-20T09:04:37;5.13;;;3.72;;
57858;SDS011;49153;45.568;11.894;2022-11-20T09:07:02;5.18;;;3.22;;
57858;SDS011;49153;45.568;11.894;2022-11-20T09:09:28;5.35;;;3.47;;
57858;SDS011;49153;45.568;11.894;2022-11-20T09:11:53;5.47;;;3.28;;
57858;SDS011;49153;45.568;11.894;2022-11-20T09:14:18;4.95;;;2.83;;
57858;SDS011;49153;45.568;11.894;2022-11-20T09:16:44;7.85;;;3.00;;
57858;SDS011;49153;45.568;11.894;2022-11-20T09:19:11;4.68;;;2.90;;
57858;SDS011;49153;45.568;11.894;2022-11-20T09:21:36;4.05;;;2.90;;
57858;SDS011;49153;45.568;11.894;2022-11-20T09:24:02;3.70;;;2.80;;
57858;SDS011;49153;45.568;11.894;2022-11-20T09:26:28;4.80;;;2.70;;
57858;SDS011;49153;45.568;11.894;2022-11-20T09:28:53;3.78;;;2.35;;
57858;SDS011;49153;45.568;11.894;2022-11-20T09:31:24;3.75;;;2.40;;
57858;SDS011;49153;45.568;11.894;2022-11-20T09:33:51;5.10;;;2.50;;
57858;SDS011;49153;45.568;11.894;2022-11-20T09:36:16;5.25;;;2.58;;
57858;SDS011;49153;45.568;11.894;2022-11-20T09:38:44;4.20;;;2.40;;
57858;SDS011;49153;45.568;11.894;2022-11-20T09:41:20;4.25;;;2.78;;
57858;SDS011;49153;45.568;11.894;2022-11-20T09:54:31;2.70;;;1.80;;
57858;SDS011;49153;45.568;11.894;2022-11-20T09:57:05;3.28;;;1.95;;
57858;SDS011;49153;45.568;11.894;2022-11-20T10:02:03;2.95;;;2.03;;
57858;SDS011;49153;45.568;11.894;2022-11-20T10:04:42;3.17;;;1.80;;
57858;SDS011;49153;45.568;11.894;2022-11-20T10:07:21;2.58;;;1.80;;
57858;SDS011;49153;45.568;11.894;2022-11-20T10:09:53;3.33;;;2.00;;
57858;SDS011;49153;45.568;11.894;2022-11-20T10:12:27;2.17;;;1.48;;
57858;SDS011;49153;45.568;11.894;2022-11-20T10:25:55;2.65;;;1.40;;
57858;SDS011;49153;45.568;11.894;2022-11-20T10:28:46;3.40;;;1.27;;
57858;SDS011;49153;45.568;11.894;2022-11-20T10:31:40;6.45;;;1.42;;
57858;SDS011;49153;45.568;11.894;2022-11-20T10:34:18;3.38;;;1.55;;
57858;SDS011;49153;45.568;11.894;2022-11-20T10:37:08;2.58;;;1.50;;
57858;SDS011;49153;45.568;11.894;2022-11-20T10:42:35;2.20;;;1.40;;
57858;SDS011;49153;45.568;11.894;2022-11-20T10:47:54;3.70;;;1.60;;
57858;SDS011;49153;45.568;11.894;2022-11-20T10:50:29;5.82;;;2.10;;
57858;SDS011;49153;45.568;11.894;2022-11-20T10:52:59;4.75;;;1.73;;
57858;SDS011;49153;45.568;11.894;2022-11-20T10:55:40;1.95;;;1.60;;
57858;SDS011;49153;45.568;11.894;2022-11-20T11:01:05;2.88;;;1.40;;
57858;SDS011;49153;45.568;11.894;2022-11-20T11:03:38;3.40;;;1.40;;
57858;SDS011;49153;45.568;11.894;2022-11-20T11:08:45;4.45;;;1.45;;
57858;SDS011;49153;45.568;11.894;2022-11-20T11:11:23;2.72;;;1.30;;
57858;SDS011;49153;45.568;11.894;2022-11-20T11:13:53;3.80;;;1.85;;
57858;SDS011;49153;45.568;11.894;2022-11-20T11:16:29;2.78;;;1.30;;
57858;SDS011;49153;45.568;11.894;2022-11-20T11:19:05;3.15;;;1.20;;
57858;SDS011;49153;45.568;11.894;2022-11-20T11:21:32;2.28;;;1.08;;
57858;SDS011;49153;45.568;11.894;2022-11-20T11:24:02;3.03;;;1.17;;
57858;SDS011;49153;45.568;11.894;2022-11-20T11:26:28;2.50;;;1.17;;
57858;SDS011;49153;45.568;11.894;2022-11-20T11:28:59;3.70;;;1.30;;
57858;SDS011;49153;45.568;11.894;2022-11-20T11:31:36;3.15;;;1.15;;
57858;SDS011;49153;45.568;11.894;2022-11-20T11:34:07;2.15;;;1.20;;
57858;SDS011;49153;45.568;11.894;2022-11-20T11:36:36;3.72;;;1.20;;
57858;SDS011;49153;45.568;11.894;2022-11-20T11:39:03;2.75;;;1.10;;
57858;SDS011;49153;45.568;11.894;2022-11-20T11:41:33;3.22;;;1.15;;
57858;SDS011;49153;45.568;11.894;2022-11-20T11:44:21;4.32;;;0.93;;
57858;SDS011;49153;45.568;11.894;2022-11-20T11:47:23;2.75;;;1.10;;
57858;SDS011;49153;45.568;11.894;2022-11-20T11:52:27;1.80;;;0.90;;
57858;SDS011;49153;45.568;11.894;2022-11-20T11:55:00;2.00;;;0.90;;
57858;SDS011;49153;45.568;11.894;2022-11-20T11:57:39;2.25;;;1.00;;
57858;SDS011;49153;45.568;11.894;2022-11-20T12:07:55;1.75;;;0.80;;
57858;SDS011;49153;45.568;11.894;2022-11-20T12:10:33;3.20;;;1.02;;
57858;SDS011;49153;45.568;11.894;2022-11-20T12:13:14;4.03;;;0.93;;
57858;SDS011;49153;45.568;11.894;2022-11-20T12:15:46;1.63;;;0.80;;
57858;SDS011;49153;45.568;11.894;2022-11-20T12:18:14;3.33;;;1.00;;
57858;SDS011;49153;45.568;11.894;2022-11-20T12:20:45;1.27;;;0.85;;
57858;SDS011;49153;45.568;11.894;2022-11-20T12:23:23;2.40;;;0.80;;
57858;SDS011;49153;45.568;11.894;2022-11-20T12:25:58;2.25;;;0.90;;
57858;SDS011;49153;45.568;11.894;2022-11-20T12:28:44;2.28;;;1.00;;
57858;SDS011;49153;45.568;11.894;2022-11-20T12:37:48;1.42;;;1.00;;
57858;SDS011;49153;45.568;11.894;2022-11-20T12:56:39;3.03;;;0.93;;
57858;SDS011;49153;45.568;11.894;2022-11-20T13:01:47;1.50;;;0.90;;
57858;SDS011;49153;45.568;11.894;2022-11-20T13:06:48;1.48;;;0.80;;
57858;SDS011;49153;45.568;11.894;2022-11-20T13:09:15;2.35;;;1.17;;
57858;SDS011;49153;45.568;11.894;2022-11-20T13:19:50;3.17;;;1.00;;
57858;SDS011;49153;45.568;11.894;2022-11-20T13:22:28;3.55;;;1.38;;
57858;SDS011;49153;45.568;11.894;2022-11-20T13:25:10;2.67;;;1.50;;
57858;SDS011;49153;45.568;11.894;2022-11-20T13:27:47;2.85;;;1.20;;
57858;SDS011;49153;45.568;11.894;2022-11-20T13:30:15;3.35;;;1.42;;
57858;SDS011;49153;45.568;11.894;2022-11-20T13:32:56;1.95;;;1.20;;
57858;SDS011;49153;45.568;11.894;2022-11-20T13:35:28;2.78;;;1.25;;
57858;SDS011;49153;45.568;11.894;2022-11-20T13:38:15;2.70;;;1.03;;
57858;SDS011;49153;45.568;11.894;2022-11-20T13:40:50;1.55;;;1.20;;
57858;SDS011;49153;45.568;11.894;2022-11-20T13:43:40;2.72;;;1.30;;
57858;SDS011;49153;45.568;11.894;2022-11-20T13:46:07;3.50;;;1.50;;
57858;SDS011;49153;45.568;11.894;2022-11-20T13:48:41;3.22;;;1.33;;
57858;SDS011;49153;45.568;11.894;2022-11-20T14:02:14;2.65;;;1.27;;
57858;SDS011;49153;45.568;11.894;2022-11-20T14:04:45;3.50;;;1.60;;
57858;SDS011;49153;45.568;11.894;2022-11-20T14:07:13;2.72;;;1.42;;
57858;SDS011;49153;45.568;11.894;2022-11-20T14:09:38;2.30;;;1.50;;
57858;SDS011;49153;45.568;11.894;2022-11-20T14:12:12;3.40;;;1.30;;
57858;SDS011;49153;45.568;11.894;2022-11-20T14:14:47;3.47;;;2.00;;
57858;SDS011;49153;45.568;11.894;2022-11-20T14:17:21;2.95;;;1.83;;
57858;SDS011;49153;45.568;11.894;2022-11-20T14:19:49;2.38;;;1.70;;
57858;SDS011;49153;45.568;11.894;2022-11-20T14:22:23;2.90;;;1.80;;
57858;SDS011;49153;45.568;11.894;2022-11-20T14:27:52;3.05;;;1.70;;
57858;SDS011;49153;45.568;11.894;2022-11-20T14:30:21;2.08;;;1.45;;
57858;SDS011;49153;45.568;11.894;2022-11-20T14:35:17;2.45;;;1.60;;
57858;SDS011;49153;45.568;11.894;2022-11-20T14:37:53;4.05;;;1.88;;
57858;SDS011;49153;45.568;11.894;2022-11-20T14:42:54;2.58;;;1.73;;
57858;SDS011;49153;45.568;11.894;2022-11-20T14:45:20;2.92;;;1.60;;
57858;SDS011;49153;45.568;11.894;2022-11-20T14:47:46;2.83;;;1.90;;
57858;SDS011;49153;45.568;11.894;2022-11-20T14:50:16;3.17;;;2.03;;
57858;SDS011;49153;45.568;11.894;2022-11-20T14:55:29;3.63;;;2.13;;
57858;SDS011;49153;45.568;11.894;2022-11-20T14:58:02;2.95;;;1.80;;
57858;SDS011;49153;45.568;11.894;2022-11-20T15:00:52;3.85;;;2.25;;
57858;SDS011;49153;45.568;11.894;2022-11-20T15:03:37;3.88;;;2.58;;
57858;SDS011;49153;45.568;11.894;2022-11-20T15:06:04;4.13;;;2.40;;
57858;SDS011;49153;45.568;11.894;2022-11-20T15:08:32;5.90;;;2.47;;
57858;SDS011;49153;45.568;11.894;2022-11-20T15:10:57;5.50;;;2.50;;
57858;SDS011;49153;45.568;11.894;2022-11-20T15:15:50;3.47;;;2.38;;
57858;SDS011;49153;45.568;11.894;2022-11-20T15:18:36;3.97;;;2.40;;
57858;SDS011;49153;45.568;11.894;2022-11-20T15:21:03;4.63;;;2.28;;
57858;SDS011;49153;45.568;11.894;2022-11-20T15:23:35;3.95;;;2.28;;
57858;SDS011;49153;45.568;11.894;2022-11-20T15:26:01;6.55;;;2.47;;
57858;SDS011;49153;45.568;11.894;2022-11-20T15:31:03;4.57;;;2.70;;
57858;SDS011;49153;45.568;11.894;2022-11-20T15:33:29;3.75;;;2.63;;
57858;SDS011;49153;45.568;11.894;2022-11-20T15:35:55;3.40;;;2.58;;
57858;SDS011;49153;45.568;11.894;2022-11-20T15:38:23;4.97;;;2.70;;
57858;SDS011;49153;45.568;11.894;2022-11-20T15:40:48;4.65;;;2.78;;
57858;SDS011;49153;45.568;11.894;2022-11-20T15:43:14;4.43;;;3.03;;
57858;SDS011;49153;45.568;11.894;2022-11-20T15:45:49;3.20;;;2.85;;
57858;SDS011;49153;45.568;11.894;2022-11-20T15:50:55;4.90;;;3.30;;
57858;SDS011;49153;45.568;11.894;2022-11-20T15:53:23;4.05;;;2.90;;
57858;SDS011;49153;45.568;11.894;2022-11-20T15:55:48;4.63;;;3.10;;
57858;SDS011;49153;45.568;11.894;2022-11-20T15:58:14;3.88;;;2.75;;
57858;SDS011;49153;45.568;11.894;2022-11-20T16:00:41;4.47;;;3.17;;
57858;SDS011;49153;45.568;11.894;2022-11-20T16:03:11;6.47;;;3.13;;
57858;SDS011;49153;45.568;11.894;2022-11-20T16:05:37;4.32;;;3.20;;
57858;SDS011;49153;45.568;11.894;2022-11-20T16:08:02;5.45;;;3.30;;
57858;SDS011;49153;45.568;11.894;2022-11-20T16:10:28;5.97;;;3.58;;
57858;SDS011;49153;45.568;11.894;2022-11-20T16:12:53;7.55;;;4.00;;
57858;SDS011;49153;45.568;11.894;2022-11-20T16:15:38;4.82;;;3.75;;
57858;SDS011;49153;45.568;11.894;2022-11-20T16:18:16;6.50;;;4.07;;
57858;SDS011;49153;45.568;11.894;2022-11-20T16:20:44;6.63;;;4.32;;
57858;SDS011;49153;45.568;11.894;2022-11-20T16:23:19;6.15;;;4.03;;
57858;SDS011;49153;45.568;11.894;2022-11-20T16:25:45;6.45;;;4.57;;
57858;SDS011;49153;45.568;11.894;2022-11-20T16:28:12;6.78;;;4.90;;
57858;SDS011;49153;45.568;11.894;2022-11-20T16:30:38;8.52;;;4.90;;
57858;SDS011;49153;45.568;11.894;2022-11-20T16:33:04;7.75;;;4.63;;
57858;SDS011;49153;45.568;11.894;2022-11-20T16:35:34;6.18;;;4.63;;
57858;SDS011;49153;45.568;11.894;2022-11-20T16:37:59;7.68;;;4.60;;
57858;SDS011;49153;45.568;11.894;2022-11-20T16:40:25;7.30;;;4.95;;
57858;SDS011;49153;45.568;11.894;2022-11-20T16:42:51;8.30;;;5.25;;
57858;SDS011;49153;45.568;11.894;2022-11-20T16:45:17;8.25;;;5.13;;
57858;SDS011;49153;45.568;11.894;2022-11-20T16:47:43;9.13;;;5.40;;
57858;SDS011;49153;45.568;11.894;2022-11-20T16:50:08;8.80;;;5.55;;